createdAt,value
2022-11-05T00:02:14.556Z,90.42
2022-11-05T00:04:45.120Z,90.04
2022-11-05T00:07:15.438Z,89.42
2022-11-05T00:09:45.985Z,89.37
2022-11-05T00:12:16.590Z,90.04
2022-11-05T00:14:47.193Z,89.81
2022-11-05T00:17:17.792Z,89.62
2022-11-05T00:19:48.388Z,89.83
2022-11-05T00:22:19.019Z,89.28
2022-11-05T00:24:49.577Z,90.02
2022-11-05T00:27:20.279Z,89.72
2022-11-05T00:29:50.493Z,91.88
2022-11-05T00:32:21.110Z,92.00
2022-11-05T00:34:51.416Z,91.88
2022-11-05T00:37:22.106Z,92.28
2022-11-05T00:39:52.729Z,91.98
2022-11-05T00:42:23.224Z,91.71
2022-11-05T00:44:53.816Z,91.11
2022-11-05T00:47:24.117Z,90.50
2022-11-05T00:49:54.662Z,91.02
2022-11-05T00:52:25.370Z,91.59
2022-11-05T00:54:55.587Z,90.67
2022-11-05T00:57:26.203Z,91.14
2022-11-05T00:59:56.528Z,91.28
2022-11-05T01:02:27.245Z,90.55
2022-11-05T01:04:57.749Z,90.41
2022-11-05T01:07:28.461Z,91.17
2022-11-05T01:09:58.981Z,91.42
2022-11-05T01:12:29.614Z,91.01
2022-11-05T01:15:00.241Z,90.90
2022-11-05T01:17:30.602Z,90.93
2022-11-05T01:20:01.126Z,90.82
2022-11-05T01:22:31.841Z,90.57
2022-11-05T01:25:02.371Z,91.10
2022-11-05T01:27:32.998Z,91.70
2022-11-05T01:30:03.716Z,91.74
2022-11-05T01:32:34.250Z,91.92
2022-11-05T01:35:04.840Z,91.02
2022-11-05T01:37:35.478Z,90.66
2022-11-05T01:40:06.092Z,91.01
2022-11-05T01:42:36.773Z,92.96
2022-11-05T01:45:07.377Z,91.67
2022-11-05T01:47:38.034Z,92.41
2022-11-05T01:50:08.657Z,92.78
2022-11-05T01:52:38.960Z,97.70
2022-11-05T01:55:09.579Z,92.86
2022-11-05T01:57:39.753Z,92.42
2022-11-05T02:00:10.282Z,92.30
2022-11-05T02:02:41.108Z,91.89
2022-11-05T02:05:11.209Z,91.64
2022-11-05T02:07:41.831Z,91.93
2022-11-05T02:10:12.461Z,91.62
2022-11-05T02:12:43.120Z,92.84
2022-11-05T02:15:13.762Z,91.87
2022-11-05T02:17:44.406Z,92.84
2022-11-05T02:20:15.030Z,93.28
2022-11-05T02:22:45.684Z,91.88
2022-11-05T02:25:16.319Z,91.18
2022-11-05T02:27:46.979Z,90.86
2022-11-05T02:30:17.609Z,91.20
2022-11-05T02:32:48.269Z,91.41
2022-11-05T02:35:18.893Z,91.95
2022-11-05T02:37:49.552Z,92.14
2022-11-05T02:40:20.183Z,92.31
2022-11-05T02:42:51.025Z,91.70
2022-11-05T02:45:21.449Z,91.49
2022-11-05T02:47:52.106Z,90.32
2022-11-05T02:50:22.728Z,90.85
2022-11-05T02:52:53.377Z,91.15
2022-11-05T02:55:23.785Z,90.20
2022-11-05T02:57:54.400Z,90.33
2022-11-05T03:00:25.139Z,90.76
2022-11-05T03:02:55.791Z,90.64
2022-11-05T03:05:26.423Z,91.43
2022-11-05T03:07:57.036Z,90.78
2022-11-05T03:10:27.369Z,91.32
2022-11-05T03:12:58.044Z,91.20
2022-11-05T03:15:28.686Z,91.45
2022-11-05T03:17:59.355Z,90.73
2022-11-05T03:20:30.005Z,90.65
2022-11-05T03:23:00.719Z,90.85
2022-11-05T03:25:31.334Z,91.04
2022-11-05T03:28:01.650Z,90.55
2022-11-05T03:30:32.306Z,90.31
2022-11-05T03:33:02.998Z,91.14
2022-11-05T03:35:33.622Z,91.12
2022-11-05T03:38:04.305Z,90.94
2022-11-05T03:40:34.937Z,91.64
2022-11-05T03:43:05.597Z,91.96
2022-11-05T03:45:36.310Z,92.29
2022-11-05T03:48:07.042Z,91.83
2022-11-05T03:50:41.312Z,90.94
2022-11-05T03:53:08.674Z,90.29
2022-11-05T03:55:38.887Z,90.47
2022-11-05T03:58:09.560Z,90.12
2022-11-05T04:00:40.219Z,90.50
2022-11-05T04:03:11.271Z,89.08
2022-11-05T04:05:41.578Z,90.58
2022-11-05T04:08:14.424Z,91.11
2022-11-05T04:10:43.030Z,90.87
2022-11-05T04:13:13.961Z,91.33
2022-11-05T04:15:44.295Z,90.89
2022-11-05T04:18:14.725Z,91.66
2022-11-05T04:20:45.359Z,91.25
2022-11-05T04:23:16.044Z,91.30
2022-11-05T04:25:46.714Z,91.83
2022-11-05T04:28:17.449Z,94.37
2022-11-05T04:30:48.078Z,92.87
2022-11-05T04:33:18.825Z,92.47
2022-11-05T04:35:49.446Z,92.22
2022-11-05T04:38:20.173Z,94.37
2022-11-05T04:40:50.833Z,94.48
2022-11-05T04:43:21.787Z,94.01
2022-11-05T04:45:52.228Z,92.95
2022-11-05T04:48:23.025Z,93.45
2022-11-05T04:50:53.635Z,94.77
2022-11-05T04:53:24.333Z,95.96
2022-11-05T04:55:55.031Z,95.50
2022-11-05T04:58:25.744Z,94.81
2022-11-05T05:00:56.513Z,93.79
2022-11-05T05:03:27.101Z,93.50
2022-11-05T05:06:03.377Z,92.80
2022-11-05T05:08:28.457Z,92.37
2022-11-05T05:10:59.149Z,92.67
2022-11-05T05:13:29.549Z,91.33
2022-11-05T05:16:00.235Z,92.17
2022-11-05T05:18:30.551Z,91.21
2022-11-05T05:21:00.968Z,91.74
2022-11-05T05:23:31.657Z,91.88
2022-11-05T05:26:02.078Z,91.91
2022-11-05T05:28:32.765Z,91.95
2022-11-05T05:31:03.128Z,92.53
2022-11-05T05:33:33.528Z,91.16
2022-11-05T05:36:08.496Z,91.38
2022-11-05T05:38:34.661Z,91.61
2022-11-05T05:41:05.011Z,91.68
2022-11-05T05:43:35.713Z,91.59
2022-11-05T05:46:06.446Z,92.16
2022-11-05T05:48:37.147Z,92.06
2022-11-05T05:51:07.866Z,91.45
2022-11-05T05:53:38.563Z,92.32
2022-11-05T05:56:09.279Z,93.43
2022-11-05T05:58:39.690Z,92.34
2022-11-05T06:01:15.579Z,92.91
2022-11-05T06:03:40.817Z,92.34
2022-11-05T06:06:11.188Z,92.62
2022-11-05T06:08:41.893Z,92.32
2022-11-05T06:11:12.641Z,92.10
2022-11-05T06:13:43.311Z,92.43
2022-11-05T06:16:13.810Z,94.96
2022-11-05T06:18:44.458Z,94.54
2022-11-05T06:21:15.272Z,94.81
2022-11-05T06:23:45.889Z,93.12
2022-11-05T06:26:16.611Z,93.09
2022-11-05T06:28:47.316Z,92.29
2022-11-05T06:31:18.073Z,91.82
2022-11-05T06:33:48.731Z,91.75
2022-11-05T06:36:19.167Z,92.03
2022-11-05T06:38:49.892Z,91.84
2022-11-05T06:41:20.602Z,91.93
2022-11-05T06:43:51.294Z,91.76
2022-11-05T06:46:22.023Z,91.59
2022-11-05T06:48:52.730Z,92.24
2022-11-05T06:51:23.454Z,92.83
2022-11-05T06:53:54.169Z,92.27
2022-11-05T06:56:24.890Z,92.21
2022-11-05T06:58:54.974Z,92.52
2022-11-05T07:01:25.848Z,91.95
2022-11-05T07:03:56.425Z,93.75
2022-11-05T07:06:27.131Z,92.78
2022-11-05T07:08:57.837Z,93.29
2022-11-05T07:11:28.556Z,95.36
2022-11-05T07:13:59.378Z,96.64
2022-11-05T07:16:30.098Z,94.95
2022-11-05T07:19:00.692Z,94.66
2022-11-05T07:21:31.401Z,94.28
2022-11-05T07:24:02.105Z,94.80
2022-11-05T07:26:34.709Z,94.33
2022-11-05T07:29:02.908Z,94.27
2022-11-05T07:31:33.098Z,96.56
2022-11-05T07:34:03.138Z,97.66
2022-11-05T07:36:33.289Z,96.73
2022-11-05T07:39:03.988Z,96.40
2022-11-05T07:41:34.706Z,95.48
2022-11-05T07:44:05.384Z,94.82
2022-11-05T07:46:36.098Z,95.25
2022-11-05T07:49:06.154Z,96.27
2022-11-05T07:51:36.859Z,95.93
2022-11-05T07:54:07.541Z,95.52
2022-11-05T07:56:38.352Z,95.45
2022-11-05T07:59:08.921Z,96.46
2022-11-05T08:01:39.880Z,95.13
2022-11-05T08:04:10.316Z,95.66
2022-11-05T08:06:41.001Z,94.82
2022-11-05T08:09:11.735Z,95.24
2022-11-05T08:11:42.375Z,96.00
2022-11-05T08:14:12.878Z,95.24
2022-11-05T08:16:43.206Z,95.32
2022-11-05T08:19:13.862Z,94.93
2022-11-05T08:21:44.192Z,94.42
2022-11-05T08:24:14.694Z,94.34
2022-11-05T08:26:45.071Z,94.88
2022-11-05T08:29:15.846Z,95.24
2022-11-05T08:31:46.469Z,96.69
2022-11-05T08:34:17.082Z,96.78
2022-11-05T08:36:47.806Z,96.66
2022-11-05T08:39:18.451Z,95.91
2022-11-05T08:41:49.143Z,96.65
2022-11-05T08:44:19.234Z,98.02
2022-11-05T08:46:49.613Z,96.07
2022-11-05T08:49:20.280Z,96.04
2022-11-05T08:51:50.966Z,95.98
2022-11-05T08:54:21.784Z,96.19
2022-11-05T08:56:52.277Z,96.87
2022-11-05T08:59:22.961Z,95.52
2022-11-05T09:01:53.761Z,95.75
2022-11-05T09:04:24.334Z,95.55
2022-11-05T09:06:54.735Z,95.43
2022-11-05T09:09:25.458Z,96.73
2022-11-05T09:12:11.567Z,95.80
2022-11-05T09:14:26.860Z,95.29
2022-11-05T09:16:57.462Z,95.40
2022-11-05T09:19:27.839Z,95.95
2022-11-05T09:21:57.886Z,96.51
2022-11-05T09:24:28.546Z,97.82
2022-11-05T09:26:59.259Z,98.04
2022-11-05T09:29:29.272Z,98.80
2022-11-05T09:31:59.932Z,95.56
2022-11-05T09:34:30.573Z,95.62
2022-11-05T09:37:01.235Z,94.83
2022-11-05T09:39:31.905Z,95.20
2022-11-05T09:42:02.552Z,94.63
2022-11-05T09:44:33.272Z,95.18
2022-11-05T09:47:03.601Z,94.99
2022-11-05T09:49:34.014Z,95.13
2022-11-05T09:52:04.666Z,94.89
2022-11-05T09:54:35.321Z,94.61
2022-11-05T09:57:05.623Z,93.81
2022-11-05T09:59:36.257Z,95.37
2022-11-05T10:02:06.762Z,94.71
2022-11-05T10:04:37.300Z,94.24
2022-11-05T10:07:07.297Z,96.24
2022-11-05T10:09:37.652Z,95.70
2022-11-05T10:12:08.032Z,96.01
2022-11-05T10:14:38.394Z,95.30
2022-11-05T10:17:08.946Z,94.45
2022-11-05T10:19:39.280Z,94.48
2022-11-05T10:22:09.916Z,93.81
2022-11-05T10:24:40.536Z,93.56
2022-11-05T10:27:10.881Z,93.61
2022-11-05T10:29:41.141Z,93.51
2022-11-05T10:32:11.219Z,94.05
2022-11-05T10:34:41.831Z,93.21
2022-11-05T10:37:12.142Z,93.86
2022-11-05T10:39:42.478Z,94.71
2022-11-05T10:42:13.032Z,93.39
2022-11-05T10:44:43.471Z,93.83
2022-11-05T10:47:13.992Z,94.30
2022-11-05T10:49:44.577Z,93.72
2022-11-05T10:52:15.170Z,94.60
2022-11-05T10:54:45.759Z,95.27
2022-11-05T10:57:16.363Z,92.39
2022-11-05T10:59:46.936Z,92.68
2022-11-05T11:02:17.639Z,92.40
2022-11-05T11:04:48.101Z,92.78
2022-11-05T11:07:18.695Z,91.69
2022-11-05T11:09:49.334Z,91.92
2022-11-05T11:12:19.979Z,92.26
2022-11-05T11:14:50.450Z,92.59
2022-11-05T11:17:21.045Z,92.67
2022-11-05T11:19:51.614Z,91.69
2022-11-05T11:22:22.201Z,91.62
2022-11-05T11:24:52.808Z,92.56
2022-11-05T11:27:23.366Z,91.83
2022-11-05T11:29:53.971Z,92.50
2022-11-05T11:32:24.518Z,91.95
2022-11-05T11:34:55.133Z,90.80
2022-11-05T11:37:25.301Z,90.51
2022-11-05T11:39:55.855Z,90.21
2022-11-05T11:42:26.417Z,90.79
2022-11-05T11:44:57.045Z,89.73
2022-11-05T11:47:27.557Z,90.20
2022-11-05T11:49:57.823Z,90.17
2022-11-05T11:52:28.401Z,90.19
2022-11-05T11:54:58.953Z,90.69
2022-11-05T11:57:29.256Z,91.04
2022-11-05T12:00:08.911Z,90.61
2022-11-05T12:02:30.657Z,89.91
2022-11-05T12:05:01.148Z,90.37
2022-11-05T12:07:31.815Z,90.51
2022-11-05T12:10:02.273Z,91.50
2022-11-05T12:12:32.835Z,91.88
2022-11-05T12:15:03.395Z,90.47
2022-11-05T12:17:33.945Z,91.10
2022-11-05T12:20:04.487Z,89.17
2022-11-05T12:22:34.770Z,88.62
2022-11-05T12:25:05.417Z,87.98
2022-11-05T12:27:35.885Z,88.42
2022-11-05T12:30:06.526Z,88.91
2022-11-05T12:32:37.077Z,88.38
2022-11-05T12:35:07.525Z,88.74
2022-11-05T12:37:38.078Z,87.78
2022-11-05T12:40:08.686Z,89.00
2022-11-05T12:42:39.173Z,88.28
2022-11-05T12:45:09.717Z,87.59
2022-11-05T12:47:40.272Z,88.39
2022-11-05T12:50:11.021Z,88.65
2022-11-05T12:52:41.374Z,87.81
2022-11-05T12:55:11.618Z,87.24
2022-11-05T12:57:42.175Z,88.51
2022-11-05T13:00:13.040Z,87.73
2022-11-05T13:02:43.414Z,87.56
2022-11-05T13:05:13.896Z,86.48
2022-11-05T13:07:44.374Z,86.80
2022-11-05T13:10:14.952Z,86.52
2022-11-05T13:12:45.467Z,86.15
2022-11-05T13:15:16.101Z,87.33
2022-11-05T13:17:46.587Z,87.93
2022-11-05T13:20:17.850Z,87.34
2022-11-05T13:22:47.682Z,88.70
2022-11-05T13:25:18.329Z,89.62
2022-11-05T13:27:48.416Z,89.56
2022-11-05T13:30:18.675Z,88.26
2022-11-05T13:32:48.963Z,87.60
2022-11-05T13:35:19.524Z,88.77
2022-11-05T13:37:50.020Z,88.83
2022-11-05T13:40:20.273Z,89.20
2022-11-05T13:42:50.746Z,88.33
2022-11-05T13:45:21.274Z,88.07
2022-11-05T13:47:51.555Z,87.15
2022-11-05T13:50:22.088Z,87.92
2022-11-05T13:52:52.625Z,88.84
2022-11-05T13:55:23.169Z,88.36
2022-11-05T13:57:53.737Z,87.59
2022-11-05T14:00:24.324Z,89.74
2022-11-05T14:02:54.842Z,88.35
2022-11-05T14:05:25.460Z,87.93
2022-11-05T14:07:55.928Z,87.90
2022-11-05T14:10:26.521Z,86.34
2022-11-05T14:12:57.024Z,87.54
2022-11-05T14:15:27.572Z,87.70
2022-11-05T14:17:57.880Z,87.71
2022-11-05T14:20:28.411Z,87.76
2022-11-05T14:22:58.623Z,87.36
2022-11-05T14:25:29.165Z,87.51
2022-11-05T14:27:59.720Z,87.66
2022-11-05T14:30:30.266Z,87.93
2022-11-05T14:33:00.840Z,88.22
2022-11-05T14:35:31.380Z,87.69
2022-11-05T14:38:01.940Z,86.95
2022-11-05T14:40:32.282Z,87.94
2022-11-05T14:43:02.863Z,88.53
2022-11-05T14:45:33.416Z,88.66
2022-11-05T14:48:03.991Z,88.74
2022-11-05T14:50:34.529Z,87.94
2022-11-05T14:53:05.094Z,87.37
2022-11-05T14:55:35.352Z,86.95
2022-11-05T14:58:05.907Z,87.24
2022-11-05T15:00:36.476Z,87.05
2022-11-05T15:03:07.043Z,86.89
2022-11-05T15:05:37.235Z,86.97
2022-11-05T15:08:07.906Z,87.56
2022-11-05T15:10:38.395Z,87.58
2022-11-05T15:13:08.519Z,87.76
2022-11-05T15:15:38.983Z,87.04
2022-11-05T15:18:09.553Z,87.31
2022-11-05T15:20:40.371Z,87.35
2022-11-05T15:23:10.556Z,87.78
2022-11-05T15:25:40.653Z,88.48
2022-11-05T15:28:11.011Z,88.15
2022-11-05T15:30:41.713Z,90.19
2022-11-05T15:33:12.487Z,87.88
2022-11-05T15:35:42.777Z,87.70
2022-11-05T15:38:13.302Z,86.78
2022-11-05T15:40:43.528Z,87.46
2022-11-05T15:43:14.519Z,87.18
2022-11-05T15:45:44.813Z,87.62
2022-11-05T15:48:15.256Z,88.01
2022-11-05T15:50:45.952Z,88.02
2022-11-05T15:53:37.517Z,87.79
2022-11-05T15:55:47.024Z,88.41
2022-11-05T15:58:17.604Z,88.69
2022-11-05T16:00:47.653Z,90.18
2022-11-05T16:03:18.232Z,88.17
2022-11-05T16:05:48.820Z,88.00
2022-11-05T16:08:19.473Z,87.14
2022-11-05T16:10:49.991Z,87.74
2022-11-05T16:13:20.307Z,87.24
2022-11-05T16:15:50.801Z,87.74
2022-11-05T16:18:21.385Z,87.81
2022-11-05T16:20:51.796Z,87.60
2022-11-05T16:23:22.278Z,88.83
2022-11-05T16:25:52.889Z,88.09
2022-11-05T16:28:23.247Z,89.05
2022-11-05T16:30:54.124Z,88.79
2022-11-05T16:33:24.361Z,89.63
2022-11-05T16:35:54.558Z,89.83
2022-11-05T16:38:25.263Z,90.16
2022-11-05T16:40:55.935Z,89.01
2022-11-05T16:43:26.106Z,89.20
2022-11-05T16:45:56.811Z,88.61
2022-11-05T16:48:26.757Z,88.61
2022-11-05T16:50:57.358Z,88.84
2022-11-05T16:53:27.611Z,89.42
2022-11-05T16:55:57.938Z,89.54
2022-11-05T16:58:28.534Z,90.16
2022-11-05T17:00:58.912Z,90.95
2022-11-05T17:03:29.441Z,90.70
2022-11-05T17:06:00.108Z,90.37
2022-11-05T17:08:30.619Z,90.31
2022-11-05T17:11:01.195Z,90.41
2022-11-05T17:13:31.781Z,90.24
2022-11-05T17:16:02.352Z,91.03
2022-11-05T17:18:32.936Z,90.72
2022-11-05T17:21:03.577Z,92.22
2022-11-05T17:23:34.105Z,90.20
2022-11-05T17:26:04.689Z,89.62
2022-11-05T17:28:35.286Z,90.26
2022-11-05T17:31:05.881Z,89.35
2022-11-05T17:33:36.468Z,90.43
2022-11-05T17:36:07.306Z,90.42
2022-11-05T17:38:37.365Z,90.17
2022-11-05T17:41:07.961Z,89.92
2022-11-05T17:43:38.541Z,89.43
2022-11-05T17:46:09.187Z,90.04
2022-11-05T17:48:39.774Z,89.67
2022-11-05T17:51:10.465Z,89.99
2022-11-05T17:53:40.938Z,89.28
2022-11-05T17:56:11.566Z,90.26
2022-11-05T17:58:42.112Z,91.27
2022-11-05T18:01:12.499Z,91.00
2022-11-05T18:03:42.982Z,91.08
2022-11-05T18:06:13.329Z,90.71
2022-11-05T18:08:43.575Z,89.30
2022-11-05T18:11:13.797Z,90.11
2022-11-05T18:13:44.390Z,89.79
2022-11-05T18:16:14.716Z,89.59
2022-11-05T18:18:45.002Z,89.44
2022-11-05T18:21:15.577Z,89.24
2022-11-05T18:23:46.158Z,89.13
2022-11-05T18:26:16.401Z,89.76
2022-11-05T18:28:46.702Z,89.32
2022-11-05T18:31:18.513Z,89.60
2022-11-05T18:33:47.605Z,89.70
2022-11-05T18:36:18.226Z,89.82
2022-11-05T18:38:48.444Z,89.62
2022-11-05T18:41:19.045Z,90.20
2022-11-05T18:43:49.640Z,90.89
2022-11-05T18:46:51.102Z,90.71
2022-11-05T18:48:50.559Z,91.43
2022-11-05T18:51:20.840Z,89.94
2022-11-05T18:53:51.075Z,89.64
2022-11-05T18:56:21.744Z,89.84
2022-11-05T18:59:08.418Z,89.07
2022-11-05T19:01:22.502Z,89.54
2022-11-05T19:03:52.509Z,89.75
2022-11-05T19:06:23.112Z,90.16
2022-11-05T19:08:53.687Z,88.79
2022-11-05T19:11:24.303Z,89.61
2022-11-05T19:13:54.873Z,89.24
2022-11-05T19:16:25.480Z,89.31
2022-11-05T19:18:56.020Z,89.07
2022-11-05T19:21:26.440Z,89.17
2022-11-05T19:23:56.972Z,88.95
2022-11-05T19:26:29.016Z,89.85
2022-11-05T19:28:57.789Z,89.86
2022-11-05T19:31:28.583Z,90.13
2022-11-05T19:33:59.269Z,90.22
2022-11-05T19:36:29.508Z,89.39
2022-11-05T19:39:00.086Z,89.20
2022-11-05T19:41:30.643Z,89.21
2022-11-05T19:44:01.200Z,88.79
2022-11-05T19:46:31.777Z,88.14
2022-11-05T19:49:02.331Z,88.38
2022-11-05T19:51:32.976Z,88.67
2022-11-05T19:54:03.118Z,88.66
2022-11-05T19:56:33.779Z,89.03
2022-11-05T19:59:03.700Z,88.88
2022-11-05T20:01:34.580Z,88.86
2022-11-05T20:04:04.994Z,89.27
2022-11-05T20:06:35.481Z,88.99
2022-11-05T20:09:20.949Z,89.61
2022-11-05T20:11:36.607Z,89.64
2022-11-05T20:14:07.102Z,89.51
2022-11-05T20:16:37.715Z,89.92
2022-11-05T20:19:07.872Z,89.01
2022-11-05T20:21:38.469Z,88.75
2022-11-05T20:24:08.999Z,88.79
2022-11-05T20:26:39.559Z,88.04
2022-11-05T20:29:09.758Z,89.12
2022-11-05T20:31:40.528Z,88.75
2022-11-05T20:34:10.666Z,88.51
2022-11-05T20:36:41.282Z,89.25
2022-11-05T20:39:11.819Z,89.36
2022-11-05T20:41:42.417Z,89.09
2022-11-05T20:44:13.097Z,89.15
2022-11-05T20:46:43.715Z,89.33
2022-11-05T20:49:14.212Z,89.23
2022-11-05T20:51:45.071Z,90.46
2022-11-05T20:54:15.611Z,90.09
2022-11-05T20:56:46.459Z,90.17
2022-11-05T20:59:17.010Z,90.04
2022-11-05T21:01:47.673Z,90.19
2022-11-05T21:04:18.103Z,89.73
2022-11-05T21:06:48.666Z,90.29
2022-11-05T21:09:19.206Z,89.95
2022-11-05T21:11:49.835Z,89.78
2022-11-05T21:14:20.327Z,90.56
2022-11-05T21:16:51.002Z,90.11
2022-11-05T21:19:21.435Z,89.66
2022-11-05T21:21:52.002Z,90.25
2022-11-05T21:24:22.671Z,89.80
2022-11-05T21:26:53.138Z,89.92
2022-11-05T21:29:23.700Z,89.63
2022-11-05T21:31:54.295Z,89.80
2022-11-05T21:34:24.831Z,91.00
2022-11-05T21:36:55.436Z,90.85
2022-11-05T21:39:25.959Z,90.40
2022-11-05T21:41:56.570Z,90.72
2022-11-05T21:44:27.067Z,89.97
2022-11-05T21:46:57.763Z,89.21
2022-11-05T21:49:28.375Z,89.42
2022-11-05T21:51:58.797Z,89.22
2022-11-05T21:54:29.286Z,88.35
2022-11-05T21:56:59.840Z,88.92
2022-11-05T21:59:30.386Z,89.66
2022-11-05T22:02:01.330Z,90.15
2022-11-05T22:04:31.508Z,89.41
2022-11-05T22:07:02.104Z,89.69
2022-11-05T22:09:32.610Z,90.41
2022-11-05T22:12:02.931Z,89.90
2022-11-05T22:14:33.461Z,90.30
2022-11-05T22:17:04.042Z,90.76
2022-11-05T22:19:34.517Z,90.51
2022-11-05T22:22:05.252Z,90.27
2022-11-05T22:24:35.592Z,90.06
2022-11-05T22:27:05.871Z,90.40
2022-11-05T22:29:36.434Z,90.37
2022-11-05T22:32:06.982Z,90.00
2022-11-05T22:34:37.527Z,90.02
2022-11-05T22:37:08.097Z,89.21
2022-11-05T22:39:38.644Z,89.68
2022-11-05T22:42:09.128Z,89.26
2022-11-05T22:44:39.141Z,90.85
2022-11-05T22:47:09.719Z,91.16
2022-11-05T22:49:39.711Z,92.27
2022-11-05T22:52:10.370Z,91.86
2022-11-05T22:54:40.506Z,93.02
2022-11-05T22:57:10.803Z,93.83
2022-11-05T22:59:41.384Z,94.71
2022-11-05T23:02:12.118Z,94.59
2022-11-05T23:04:42.738Z,94.93
2022-11-05T23:07:12.838Z,94.52
2022-11-05T23:09:43.414Z,93.84
2022-11-05T23:12:14.012Z,93.13
2022-11-05T23:14:44.243Z,92.50
2022-11-05T23:17:14.836Z,93.78
2022-11-05T23:19:45.382Z,93.70
2022-11-05T23:22:15.963Z,93.06
2022-11-05T23:24:46.549Z,92.56
2022-11-05T23:27:17.117Z,92.65
2022-11-05T23:29:47.693Z,92.09
2022-11-05T23:32:18.281Z,92.77
2022-11-05T23:34:48.837Z,92.86
2022-11-05T23:37:19.159Z,92.77
2022-11-05T23:39:49.744Z,92.64
2022-11-05T23:42:20.329Z,93.29
2022-11-05T23:44:50.913Z,92.12
2022-11-05T23:47:21.517Z,92.46
2022-11-05T23:49:52.104Z,92.38
2022-11-05T23:52:22.760Z,92.42
2022-11-05T23:54:53.288Z,92.82
2022-11-05T23:57:23.894Z,93.66
2022-11-05T23:59:54.545Z,93.69
